Time;durP1;ratioP1;P1;durP2;ratioP2;P2;SDS_P1;SDS_P2;PMS_P1;PMS_P2;Temp;Humidity;BMP_temperature;BMP_pressure;BME280_temperature;BME280_humidity;BME280_pressure;Samples;Min_cycle;Max_cycle;Signal;HPM_P1;HPM_P2
2023/03/29 00:05:13;;;;;;;11.40;4.30;;;;;;;1.72;55.39;100766.46;670264;1264;139337;-78
2023/03/29 00:20:16;;;;;;;7.40;4.20;;;;;;;1.63;57.16;100769.95;672063;1264;139733;-78
2023/03/29 00:35:19;;;;;;;11.90;4.30;;;;;;;1.73;57.66;100771.06;676029;1263;139413;-78
2023/03/29 00:50:29;;;;;;;9.00;4.40;;;;;;;1.82;58.14;100771.70;669946;1264;139243;-78
2023/03/29 01:05:40;;;;;;;14.00;5.30;;;;;;;1.65;59.74;100769.86;671384;1276;139566;-76
2023/03/29 01:21:13;;;;;;;10.90;4.90;;;;;;;1.60;59.18;100770.09;671809;1263;140111;-76
2023/03/29 01:37:03;;;;;;;90.20;30.90;;;;;;;1.52;59.91;100764.72;671956;1264;139441;-78
2023/03/29 01:52:17;;;;;;;30.80;10.70;;;;;;;1.37;60.01;100762.27;671335;1264;141032;-77
2023/03/29 02:07:25;;;;;;;70.00;21.10;;;;;;;1.21;60.58;100762.20;669934;1262;139465;-77
2023/03/29 02:22:46;;;;;;;23.90;8.50;;;;;;;1.11;60.01;100765.38;672378;1262;139104;-78
2023/03/29 02:37:53;;;;;;;24.10;9.80;;;;;;;1.02;61.00;100759.72;667650;1264;139460;-77
2023/03/29 02:53:03;;;;;;;8.50;5.00;;;;;;;1.02;61.12;100752.85;674000;1263;138491;-77
2023/03/29 03:08:07;;;;;;;12.90;5.80;;;;;;;0.81;61.47;100764.88;671748;1264;139344;-77
2023/03/29 03:23:10;;;;;;;20.40;8.10;;;;;;;0.68;61.88;100772.45;671609;1274;138523;-77
2023/03/29 03:38:14;;;;;;;10.50;5.70;;;;;;;0.61;63.48;100779.57;672632;1259;139086;-78
2023/03/29 03:53:19;;;;;;;24.40;12.00;;;;;;;0.70;64.07;100778.90;670372;1260;139700;-78
2023/03/29 04:08:47;;;;;;;15.70;10.10;;;;;;;0.53;64.90;100786.06;669313;1261;140101;-78
2023/03/29 04:24:00;;;;;;;40.60;16.80;;;;;;;0.66;64.60;100789.71;673653;1263;139419;-78
2023/03/29 04:39:06;;;;;;;121.90;49.20;;;;;;;0.72;64.55;100789.49;672730;1266;139669;-75
2023/03/29 04:54:12;;;;;;;24.30;10.50;;;;;;;0.82;64.42;100783.05;672831;1262;139028;-78
2023/03/29 05:09:39;;;;;;;16.70;7.10;;;;;;;0.84;65.27;100787.97;672612;1263;139852;-77
2023/03/29 05:24:43;;;;;;;33.50;16.40;;;;;;;0.91;65.12;100787.88;675557;1262;138935;-78
2023/03/29 05:39:56;;;;;;;41.90;21.30;;;;;;;1.17;65.53;100790.27;675031;1262;140198;-78
2023/03/29 05:55:12;;;;;;;27.70;8.70;;;;;;;1.55;65.76;100800.96;676308;1262;139397;-77
2023/03/29 06:10:17;;;;;;;22.70;7.90;;;;;;;2.04;66.19;100802.33;675060;1264;138979;-77
2023/03/29 06:25:23;;;;;;;13.50;5.70;;;;;;;2.72;65.12;100798.23;675164;1264;139225;-78
2023/03/29 06:40:27;;;;;;;20.10;8.00;;;;;;;3.51;64.31;100802.66;674386;1265;139570;-78
2023/03/29 06:55:31;;;;;;;25.90;14.30;;;;;;;4.72;62.86;100799.43;670867;1263;139725;-78
2023/03/29 07:10:40;;;;;;;8.90;4.40;;;;;;;5.74;61.33;100800.42;671780;1262;138958;-78
2023/03/29 07:26:04;;;;;;;10.40;5.70;;;;;;;6.53;59.15;100795.11;675857;1262;139087;-78
2023/03/29 07:41:08;;;;;;;12.30;6.30;;;;;;;7.11;57.20;100791.11;671101;1262;139207;-79
2023/03/29 07:56:21;;;;;;;18.70;7.90;;;;;;;7.69;55.33;100789.02;675813;1262;139890;-80
2023/03/29 08:11:29;;;;;;;16.50;5.10;;;;;;;8.54;54.46;100788.02;673316;1264;137722;-80
2023/03/29 08:26:36;;;;;;;15.90;8.60;;;;;;;9.18;52.89;100785.17;673121;1264;138619;-79
2023/03/29 08:41:46;;;;;;;9.40;4.60;;;;;;;9.42;49.21;100776.39;674044;1265;139359;-79
2023/03/29 08:56:53;;;;;;;21.10;9.30;;;;;;;9.22;45.64;100762.55;668255;1263;139199;-79
2023/03/29 09:12:19;;;;;;;20.40;7.90;;;;;;;10.26;46.17;100758.98;671770;1266;139446;-80
2023/03/29 09:27:33;;;;;;;8.20;4.70;;;;;;;10.25;44.60;100759.19;671941;1265;139844;-78
2023/03/29 09:43:06;;;;;;;6.60;5.10;;;;;;;10.61;43.53;100747.67;671884;1264;139238;-77
2023/03/29 09:58:21;;;;;;;10.20;5.50;;;;;;;11.22;42.02;100733.42;670684;1264;138927;-78
2023/03/29 10:13:31;;;;;;;7.40;2.90;;;;;;;11.89;40.46;100720.38;668949;1265;139617;-77
2023/03/29 10:28:36;;;;;;;13.80;5.70;;;;;;;12.74;39.58;100702.58;669723;1263;138440;-78
2023/03/29 10:43:48;;;;;;;25.40;9.40;;;;;;;12.68;36.16;100689.94;669878;1274;138504;-77
2023/03/29 10:59:23;;;;;;;5.70;3.30;;;;;;;12.55;33.80;100687.29;669236;1265;138877;-79
2023/03/29 11:15:01;;;;;;;8.10;2.70;;;;;;;13.00;34.55;100667.78;668700;1265;138639;-78
2023/03/29 11:30:08;;;;;;;14.80;7.30;;;;;;;13.61;32.84;100647.36;671167;1273;139313;-78
2023/03/29 11:45:29;;;;;;;13.80;4.90;;;;;;;13.79;32.28;100618.24;669170;1273;139352;-78
2023/03/29 12:00:56;;;;;;;19.00;10.20;;;;;;;14.02;30.81;100606.83;670226;1273;139125;-78
2023/03/29 12:16:35;;;;;;;22.30;10.40;;;;;;;14.29;31.01;100593.52;670562;1274;139323;-78
2023/03/29 12:31:51;;;;;;;7.80;4.00;;;;;;;14.48;31.76;100586.39;668581;1266;139828;-78
2023/03/29 12:47:00;;;;;;;5.80;3.20;;;;;;;14.82;33.37;100575.73;670036;1272;138715;-78
2023/03/29 13:02:12;;;;;;;4.40;2.60;;;;;;;16.08;34.27;100559.77;668590;1272;139586;-78
2023/03/29 13:17:35;;;;;;;14.80;7.10;;;;;;;16.66;34.86;100543.60;669342;1264;138564;-77
2023/03/29 13:32:53;;;;;;;12.20;5.70;;;;;;;16.72;34.78;100533.23;666368;1267;139210;-78
2023/03/29 13:48:26;;;;;;;8.30;4.20;;;;;;;15.93;35.76;100531.23;668872;1264;139040;-78
2023/03/29 14:03:38;;;;;;;6.10;3.60;;;;;;;17.23;35.80;100517.04;668051;1276;140160;-78
2023/03/29 14:18:43;;;;;;;16.50;8.50;;;;;;;17.49;35.16;100495.73;671319;1261;140424;-78
2023/03/29 14:33:55;;;;;;;7.90;4.20;;;;;;;17.19;35.64;100490.46;669813;1260;140238;-78
2023/03/29 14:49:01;;;;;;;16.00;9.30;;;;;;;16.34;35.89;100473.35;668989;1264;138787;-78
2023/03/29 15:04:06;;;;;;;25.10;15.10;;;;;;;15.74;37.19;100466.16;668706;1264;139133;-77
2023/03/29 15:19:17;;;;;;;29.40;16.50;;;;;;;15.77;37.96;100451.38;668536;1260;139053;-77
2023/03/29 15:34:26;;;;;;;19.80;11.10;;;;;;;15.12;38.72;100435.10;667118;1265;138758;-77
2023/03/29 15:49:29;;;;;;;11.10;5.40;;;;;;;13.94;39.80;100422.10;667849;1265;139256;-77
2023/03/29 16:04:32;;;;;;;13.00;7.30;;;;;;;12.70;41.55;100400.79;667777;1267;137513;-76
2023/03/29 16:19:36;;;;;;;15.20;8.20;;;;;;;12.40;42.61;100393.55;668271;1260;138709;-77
2023/03/29 16:34:40;;;;;;;21.60;10.20;;;;;;;12.15;43.09;100386.75;670905;1264;139020;-76
2023/03/29 16:49:47;;;;;;;13.30;7.70;;;;;;;11.79;43.58;100374.64;666674;1263;139188;-78
2023/03/29 17:04:50;;;;;;;14.10;8.70;;;;;;;11.49;44.31;100364.95;671839;1260;139523;-77
2023/03/29 17:19:55;;;;;;;14.30;8.60;;;;;;;11.28;45.20;100361.92;674953;1264;164295;-77
2023/03/29 17:34:59;;;;;;;18.40;9.30;;;;;;;10.94;46.93;100364.59;669677;1277;139579;-78
2023/03/29 17:50:04;;;;;;;25.20;15.80;;;;;;;10.56;48.36;100366.06;671079;1259;138532;-77
2023/03/29 18:05:08;;;;;;;28.00;16.80;;;;;;;10.40;48.84;100367.67;675367;1263;138631;-77
2023/03/29 18:20:12;;;;;;;33.00;13.90;;;;;;;10.28;48.90;100366.92;670243;1258;139416;-77
2023/03/29 18:35:16;;;;;;;46.00;17.30;;;;;;;10.17;49.70;100369.37;668643;1260;138961;-77
2023/03/29 18:50:20;;;;;;;33.00;14.10;;;;;;;10.07;49.82;100361.31;668069;1264;138972;-77
2023/03/29 19:05:23;;;;;;;27.40;13.40;;;;;;;10.00;49.81;100359.11;676508;1260;140001;-77
2023/03/29 19:20:28;;;;;;;30.10;13.70;;;;;;;9.84;50.44;100357.33;674254;1260;139346;-77
2023/03/29 19:35:35;;;;;;;26.40;12.80;;;;;;;9.70;50.74;100340.29;672744;1264;140133;-77
2023/03/29 19:51:01;;;;;;;19.50;9.40;;;;;;;9.57;51.21;100320.27;657606;1301;545206;-77
2023/03/29 20:06:04;;;;;;;31.00;12.90;;;;;;;9.44;51.49;100315.23;674407;1270;138100;-77
2023/03/29 20:21:17;;;;;;;20.50;9.10;;;;;;;9.34;51.63;100305.02;673868;1273;140575;-77
2023/03/29 20:36:21;;;;;;;18.90;9.40;;;;;;;9.24;52.63;100291.86;670673;1273;138108;-78
2023/03/29 20:51:27;;;;;;;19.20;8.90;;;;;;;9.15;53.36;100276.95;678683;1270;139088;-78
2023/03/29 21:06:30;;;;;;;18.50;9.10;;;;;;;9.17;53.07;100262.43;676561;1269;138338;-78
2023/03/29 21:21:34;;;;;;;22.40;9.70;;;;;;;9.20;53.12;100251.08;673316;1270;138644;-77
2023/03/29 21:36:38;;;;;;;21.00;10.30;;;;;;;9.17;53.64;100231.29;675702;1273;138100;-77
2023/03/29 21:51:41;;;;;;;17.30;9.80;;;;;;;9.12;54.21;100217.70;670653;1272;138147;-77
2023/03/29 22:06:45;;;;;;;19.80;10.60;;;;;;;9.14;54.16;100208.81;678290;1272;139349;-78
2023/03/29 22:21:48;;;;;;;20.60;10.30;;;;;;;9.17;54.13;100202.27;670601;1270;138879;-78
2023/03/29 22:36:51;;;;;;;19.80;8.80;;;;;;;9.25;54.11;100190.81;672023;1274;142823;-78
2023/03/29 22:51:54;;;;;;;19.80;9.90;;;;;;;9.29;54.30;100180.36;677467;1273;139292;-77
2023/03/29 23:06:59;;;;;;;19.30;8.50;;;;;;;9.38;54.25;100172.38;674280;1272;139207;-77
2023/03/29 23:22:02;;;;;;;22.00;10.30;;;;;;;9.41;54.74;100161.52;670302;1270;138951;-77
2023/03/29 23:37:05;;;;;;;16.10;9.60;;;;;;;9.43;54.80;100154.69;676196;1269;139575;-77
2023/03/29 23:52:09;;;;;;;21.30;11.00;;;;;;;9.42;55.16;100136.95;677031;1269;139156;-77
